Truro, Massachusetts
Current Conditions -  °F | °C
As of 9:15 AM on Monday 20 Oct 2014 (Local Time) from KPVC Reporting Station
Clear Clear  
Wind Chill: 38°   Ceiling: Unl
Heat Index: 45°   Visibility: 10mi
Dew Point: 28°   Wind: 13mph
Humidity: 53%   Direction: 270°W
Pressure: 30.07"   Gusts: NA
Location:  42°N, 70.07°W
Report Text: KPVC 201315Z 27011KT 10SM CLR 07/M02 A3007 RMK AO1
Loading
Personal Weather Stations






























Interactive Weather Map
Tropical Storm Tracking
New forecast layout! Learn more

10-Day Weather Forecast

Advertisements
Track Severe Weather on mobile